sensor_id;sensor_type;location;lat;lon;timestamp;P1;durP1;ratioP1;P2;durP2;ratioP2
13014;SDS011;6573;57.696;11.950;2022-11-15T00:01:15;6.90;;;3.87;;
13014;SDS011;6573;57.696;11.950;2022-11-15T00:03:46;5.23;;;3.87;;
13014;SDS011;6573;57.696;11.950;2022-11-15T00:06:18;5.53;;;4.33;;
13014;SDS011;6573;57.696;11.950;2022-11-15T00:08:47;6.53;;;4.70;;
13014;SDS011;6573;57.696;11.950;2022-11-15T00:11:15;6.80;;;4.97;;
13014;SDS011;6573;57.696;11.950;2022-11-15T00:13:43;8.37;;;5.80;;
13014;SDS011;6573;57.696;11.950;2022-11-15T00:16:11;7.37;;;4.77;;
13014;SDS011;6573;57.696;11.950;2022-11-15T00:18:39;8.10;;;4.23;;
13014;SDS011;6573;57.696;11.950;2022-11-15T00:21:17;6.83;;;4.17;;
13014;SDS011;6573;57.696;11.950;2022-11-15T00:23:45;6.67;;;5.63;;
13014;SDS011;6573;57.696;11.950;2022-11-15T00:26:14;7.00;;;4.40;;
13014;SDS011;6573;57.696;11.950;2022-11-15T00:28:43;6.77;;;4.50;;
13014;SDS011;6573;57.696;11.950;2022-11-15T00:31:12;7.97;;;5.13;;
13014;SDS011;6573;57.696;11.950;2022-11-15T00:33:43;7.83;;;5.20;;
13014;SDS011;6573;57.696;11.950;2022-11-15T00:36:14;6.03;;;4.13;;
13014;SDS011;6573;57.696;11.950;2022-11-15T00:38:44;7.33;;;4.37;;
13014;SDS011;6573;57.696;11.950;2022-11-15T00:41:12;7.67;;;5.30;;
13014;SDS011;6573;57.696;11.950;2022-11-15T00:43:40;6.33;;;3.63;;
13014;SDS011;6573;57.696;11.950;2022-11-15T00:46:10;6.47;;;3.90;;
13014;SDS011;6573;57.696;11.950;2022-11-15T00:48:38;6.77;;;4.47;;
13014;SDS011;6573;57.696;11.950;2022-11-15T00:51:06;9.33;;;4.53;;
13014;SDS011;6573;57.696;11.950;2022-11-15T00:53:34;6.70;;;5.50;;
13014;SDS011;6573;57.696;11.950;2022-11-15T00:56:04;5.17;;;4.00;;
13014;SDS011;6573;57.696;11.950;2022-11-15T00:58:33;5.30;;;4.27;;
13014;SDS011;6573;57.696;11.950;2022-11-15T01:01:07;5.63;;;4.40;;
13014;SDS011;6573;57.696;11.950;2022-11-15T01:03:37;5.53;;;4.70;;
13014;SDS011;6573;57.696;11.950;2022-11-15T01:06:07;7.33;;;4.17;;
13014;SDS011;6573;57.696;11.950;2022-11-15T01:08:35;5.67;;;3.83;;
13014;SDS011;6573;57.696;11.950;2022-11-15T01:11:06;7.87;;;5.60;;
13014;SDS011;6573;57.696;11.950;2022-11-15T01:13:36;11.43;;;5.10;;
13014;SDS011;6573;57.696;11.950;2022-11-15T01:16:06;9.10;;;4.50;;
13014;SDS011;6573;57.696;11.950;2022-11-15T01:18:35;6.83;;;5.37;;
13014;SDS011;6573;57.696;11.950;2022-11-15T01:21:04;6.60;;;4.00;;
13014;SDS011;6573;57.696;11.950;2022-11-15T01:23:34;7.80;;;4.13;;
13014;SDS011;6573;57.696;11.950;2022-11-15T01:26:02;6.00;;;4.20;;
13014;SDS011;6573;57.696;11.950;2022-11-15T01:28:34;6.93;;;4.00;;
13014;SDS011;6573;57.696;11.950;2022-11-15T01:31:04;6.00;;;4.37;;
13014;SDS011;6573;57.696;11.950;2022-11-15T01:33:35;5.63;;;4.13;;
13014;SDS011;6573;57.696;11.950;2022-11-15T01:36:03;7.20;;;4.43;;
13014;SDS011;6573;57.696;11.950;2022-11-15T01:38:32;6.27;;;4.20;;
13014;SDS011;6573;57.696;11.950;2022-11-15T01:41:01;7.33;;;4.60;;
13014;SDS011;6573;57.696;11.950;2022-11-15T01:43:30;6.10;;;4.47;;
13014;SDS011;6573;57.696;11.950;2022-11-15T01:46:02;7.03;;;4.10;;
13014;SDS011;6573;57.696;11.950;2022-11-15T01:48:34;7.97;;;4.97;;
13014;SDS011;6573;57.696;11.950;2022-11-15T01:51:04;6.27;;;4.90;;
13014;SDS011;6573;57.696;11.950;2022-11-15T01:53:36;9.10;;;4.83;;
13014;SDS011;6573;57.696;11.950;2022-11-15T01:56:08;7.77;;;5.10;;
13014;SDS011;6573;57.696;11.950;2022-11-15T01:58:39;7.00;;;5.10;;
13014;SDS011;6573;57.696;11.950;2022-11-15T02:01:10;7.90;;;4.40;;
13014;SDS011;6573;57.696;11.950;2022-11-15T02:03:41;8.63;;;4.33;;
13014;SDS011;6573;57.696;11.950;2022-11-15T02:06:15;8.03;;;6.33;;
13014;SDS011;6573;57.696;11.950;2022-11-15T02:08:44;10.40;;;5.27;;
13014;SDS011;6573;57.696;11.950;2022-11-15T02:11:12;7.67;;;5.10;;
13014;SDS011;6573;57.696;11.950;2022-11-15T02:13:40;6.57;;;4.77;;
13014;SDS011;6573;57.696;11.950;2022-11-15T02:16:13;10.80;;;5.83;;
13014;SDS011;6573;57.696;11.950;2022-11-15T02:18:56;7.17;;;4.40;;
13014;SDS011;6573;57.696;11.950;2022-11-15T02:21:31;7.47;;;5.43;;
13014;SDS011;6573;57.696;11.950;2022-11-15T02:24:13;7.73;;;4.77;;
13014;SDS011;6573;57.696;11.950;2022-11-15T02:27:11;7.07;;;4.70;;
13014;SDS011;6573;57.696;11.950;2022-11-15T02:30:02;6.47;;;5.60;;
13014;SDS011;6573;57.696;11.950;2022-11-15T02:32:43;7.97;;;5.17;;
13014;SDS011;6573;57.696;11.950;2022-11-15T02:35:16;7.67;;;5.93;;
13014;SDS011;6573;57.696;11.950;2022-11-15T02:37:55;6.13;;;5.53;;
13014;SDS011;6573;57.696;11.950;2022-11-15T02:40:27;6.50;;;5.17;;
13014;SDS011;6573;57.696;11.950;2022-11-15T02:43:07;8.37;;;6.17;;
13014;SDS011;6573;57.696;11.950;2022-11-15T02:45:56;6.13;;;5.30;;
13014;SDS011;6573;57.696;11.950;2022-11-15T02:48:29;10.50;;;5.77;;
13014;SDS011;6573;57.696;11.950;2022-11-15T02:50:59;8.80;;;5.97;;
13014;SDS011;6573;57.696;11.950;2022-11-15T02:53:28;8.23;;;5.67;;
13014;SDS011;6573;57.696;11.950;2022-11-15T02:55:57;8.67;;;6.50;;
13014;SDS011;6573;57.696;11.950;2022-11-15T02:58:33;7.33;;;6.20;;
13014;SDS011;6573;57.696;11.950;2022-11-15T03:01:31;7.60;;;6.03;;
13014;SDS011;6573;57.696;11.950;2022-11-15T03:04:10;7.40;;;5.87;;
13014;SDS011;6573;57.696;11.950;2022-11-15T03:06:48;7.63;;;6.57;;
13014;SDS011;6573;57.696;11.950;2022-11-15T03:09:33;8.40;;;6.57;;
13014;SDS011;6573;57.696;11.950;2022-11-15T03:12:06;6.83;;;6.13;;
13014;SDS011;6573;57.696;11.950;2022-11-15T03:14:40;6.87;;;6.17;;
13014;SDS011;6573;57.696;11.950;2022-11-15T03:17:21;7.40;;;6.40;;
13014;SDS011;6573;57.696;11.950;2022-11-15T03:19:54;6.97;;;6.00;;
13014;SDS011;6573;57.696;11.950;2022-11-15T03:22:26;6.50;;;5.87;;
13014;SDS011;6573;57.696;11.950;2022-11-15T03:24:57;9.00;;;5.87;;
13014;SDS011;6573;57.696;11.950;2022-11-15T03:27:30;6.90;;;5.27;;
13014;SDS011;6573;57.696;11.950;2022-11-15T03:30:03;6.27;;;5.37;;
13014;SDS011;6573;57.696;11.950;2022-11-15T03:32:35;7.83;;;5.80;;
13014;SDS011;6573;57.696;11.950;2022-11-15T03:35:07;10.13;;;6.57;;
13014;SDS011;6573;57.696;11.950;2022-11-15T03:37:40;6.90;;;5.37;;
13014;SDS011;6573;57.696;11.950;2022-11-15T03:40:13;9.70;;;5.40;;
13014;SDS011;6573;57.696;11.950;2022-11-15T03:42:46;7.10;;;5.57;;
13014;SDS011;6573;57.696;11.950;2022-11-15T03:45:22;7.90;;;4.30;;
13014;SDS011;6573;57.696;11.950;2022-11-15T03:47:57;8.37;;;7.30;;
13014;SDS011;6573;57.696;11.950;2022-11-15T03:50:29;8.67;;;5.33;;
13014;SDS011;6573;57.696;11.950;2022-11-15T03:52:57;9.33;;;7.37;;
13014;SDS011;6573;57.696;11.950;2022-11-15T03:55:26;8.63;;;5.27;;
13014;SDS011;6573;57.696;11.950;2022-11-15T03:57:56;9.30;;;6.17;;
13014;SDS011;6573;57.696;11.950;2022-11-15T04:00:26;8.33;;;5.70;;
13014;SDS011;6573;57.696;11.950;2022-11-15T04:02:56;8.13;;;5.80;;
13014;SDS011;6573;57.696;11.950;2022-11-15T04:05:24;6.87;;;5.83;;
13014;SDS011;6573;57.696;11.950;2022-11-15T04:07:53;7.70;;;6.10;;
13014;SDS011;6573;57.696;11.950;2022-11-15T04:10:21;10.10;;;6.57;;
13014;SDS011;6573;57.696;11.950;2022-11-15T04:12:49;8.33;;;5.90;;
13014;SDS011;6573;57.696;11.950;2022-11-15T04:15:19;8.67;;;6.50;;
13014;SDS011;6573;57.696;11.950;2022-11-15T04:17:50;9.17;;;6.63;;
13014;SDS011;6573;57.696;11.950;2022-11-15T04:20:22;10.07;;;7.30;;
13014;SDS011;6573;57.696;11.950;2022-11-15T04:23:10;9.97;;;6.37;;
13014;SDS011;6573;57.696;11.950;2022-11-15T04:25:58;9.03;;;6.20;;
13014;SDS011;6573;57.696;11.950;2022-11-15T04:28:28;9.00;;;6.43;;
13014;SDS011;6573;57.696;11.950;2022-11-15T04:30:57;9.13;;;6.87;;
13014;SDS011;6573;57.696;11.950;2022-11-15T04:33:25;10.37;;;6.70;;
13014;SDS011;6573;57.696;11.950;2022-11-15T04:35:55;9.20;;;6.57;;
13014;SDS011;6573;57.696;11.950;2022-11-15T04:38:41;9.07;;;6.73;;
13014;SDS011;6573;57.696;11.950;2022-11-15T04:41:09;8.70;;;6.60;;
13014;SDS011;6573;57.696;11.950;2022-11-15T04:43:37;8.13;;;5.77;;
13014;SDS011;6573;57.696;11.950;2022-11-15T04:46:05;8.43;;;5.53;;
13014;SDS011;6573;57.696;11.950;2022-11-15T04:48:33;9.80;;;6.90;;
13014;SDS011;6573;57.696;11.950;2022-11-15T04:51:03;11.07;;;6.73;;
13014;SDS011;6573;57.696;11.950;2022-11-15T04:53:32;9.90;;;6.50;;
13014;SDS011;6573;57.696;11.950;2022-11-15T04:56:00;6.83;;;4.33;;
13014;SDS011;6573;57.696;11.950;2022-11-15T04:58:29;9.33;;;6.00;;
13014;SDS011;6573;57.696;11.950;2022-11-15T05:00:57;8.07;;;5.93;;
13014;SDS011;6573;57.696;11.950;2022-11-15T05:03:25;7.37;;;5.40;;
13014;SDS011;6573;57.696;11.950;2022-11-15T05:06:20;11.60;;;6.23;;
13014;SDS011;6573;57.696;11.950;2022-11-15T05:08:49;10.83;;;6.00;;
13014;SDS011;6573;57.696;11.950;2022-11-15T05:11:17;7.30;;;5.00;;
13014;SDS011;6573;57.696;11.950;2022-11-15T05:13:46;8.53;;;6.70;;
13014;SDS011;6573;57.696;11.950;2022-11-15T05:16:15;6.40;;;4.93;;
13014;SDS011;6573;57.696;11.950;2022-11-15T05:18:43;4.47;;;3.23;;
13014;SDS011;6573;57.696;11.950;2022-11-15T05:21:12;9.23;;;5.80;;
13014;SDS011;6573;57.696;11.950;2022-11-15T05:23:43;9.33;;;6.20;;
13014;SDS011;6573;57.696;11.950;2022-11-15T05:26:12;10.77;;;7.17;;
13014;SDS011;6573;57.696;11.950;2022-11-15T05:28:40;8.50;;;6.00;;
13014;SDS011;6573;57.696;11.950;2022-11-15T05:31:09;10.10;;;5.87;;
13014;SDS011;6573;57.696;11.950;2022-11-15T05:33:39;10.07;;;5.97;;
13014;SDS011;6573;57.696;11.950;2022-11-15T05:36:09;9.67;;;6.17;;
13014;SDS011;6573;57.696;11.950;2022-11-15T05:38:44;9.30;;;5.57;;
13014;SDS011;6573;57.696;11.950;2022-11-15T05:41:14;7.23;;;5.27;;
13014;SDS011;6573;57.696;11.950;2022-11-15T05:43:44;9.10;;;5.60;;
13014;SDS011;6573;57.696;11.950;2022-11-15T05:46:13;8.90;;;5.17;;
13014;SDS011;6573;57.696;11.950;2022-11-15T05:48:42;11.07;;;5.80;;
13014;SDS011;6573;57.696;11.950;2022-11-15T05:51:13;7.50;;;5.27;;
13014;SDS011;6573;57.696;11.950;2022-11-15T05:53:45;11.20;;;5.73;;
13014;SDS011;6573;57.696;11.950;2022-11-15T05:56:14;8.97;;;5.57;;
13014;SDS011;6573;57.696;11.950;2022-11-15T05:58:43;7.37;;;5.40;;
13014;SDS011;6573;57.696;11.950;2022-11-15T06:01:11;9.70;;;6.67;;
13014;SDS011;6573;57.696;11.950;2022-11-15T06:03:39;10.50;;;5.03;;
13014;SDS011;6573;57.696;11.950;2022-11-15T06:06:07;9.20;;;5.73;;
13014;SDS011;6573;57.696;11.950;2022-11-15T06:08:41;8.23;;;5.30;;
13014;SDS011;6573;57.696;11.950;2022-11-15T06:11:11;9.53;;;5.77;;
13014;SDS011;6573;57.696;11.950;2022-11-15T06:13:39;8.33;;;6.77;;
13014;SDS011;6573;57.696;11.950;2022-11-15T06:16:07;7.67;;;4.23;;
13014;SDS011;6573;57.696;11.950;2022-11-15T06:18:36;8.37;;;5.13;;
13014;SDS011;6573;57.696;11.950;2022-11-15T06:21:04;8.40;;;5.63;;
13014;SDS011;6573;57.696;11.950;2022-11-15T06:23:34;8.07;;;5.43;;
13014;SDS011;6573;57.696;11.950;2022-11-15T06:26:03;7.83;;;4.93;;
13014;SDS011;6573;57.696;11.950;2022-11-15T06:28:33;8.43;;;5.00;;
13014;SDS011;6573;57.696;11.950;2022-11-15T06:31:02;7.60;;;5.23;;
13014;SDS011;6573;57.696;11.950;2022-11-15T06:33:31;10.43;;;5.50;;
13014;SDS011;6573;57.696;11.950;2022-11-15T06:36:03;4.97;;;3.67;;
13014;SDS011;6573;57.696;11.950;2022-11-15T06:38:39;8.67;;;4.93;;
13014;SDS011;6573;57.696;11.950;2022-11-15T06:41:09;12.43;;;5.80;;
13014;SDS011;6573;57.696;11.950;2022-11-15T06:43:40;6.67;;;4.50;;
13014;SDS011;6573;57.696;11.950;2022-11-15T06:46:08;7.07;;;4.63;;
13014;SDS011;6573;57.696;11.950;2022-11-15T06:48:37;10.10;;;4.90;;
13014;SDS011;6573;57.696;11.950;2022-11-15T06:51:05;6.37;;;3.93;;
13014;SDS011;6573;57.696;11.950;2022-11-15T06:53:34;7.67;;;4.87;;
13014;SDS011;6573;57.696;11.950;2022-11-15T06:56:03;7.53;;;5.03;;
13014;SDS011;6573;57.696;11.950;2022-11-15T06:58:33;8.43;;;5.20;;
13014;SDS011;6573;57.696;11.950;2022-11-15T07:01:04;6.80;;;4.90;;
13014;SDS011;6573;57.696;11.950;2022-11-15T07:03:36;7.87;;;5.07;;
13014;SDS011;6573;57.696;11.950;2022-11-15T07:06:06;8.70;;;5.00;;
13014;SDS011;6573;57.696;11.950;2022-11-15T07:08:35;9.70;;;4.83;;
13014;SDS011;6573;57.696;11.950;2022-11-15T07:11:05;7.77;;;4.50;;
13014;SDS011;6573;57.696;11.950;2022-11-15T07:13:34;8.23;;;4.23;;
13014;SDS011;6573;57.696;11.950;2022-11-15T07:16:05;9.93;;;5.13;;
13014;SDS011;6573;57.696;11.950;2022-11-15T07:18:35;7.53;;;4.70;;
13014;SDS011;6573;57.696;11.950;2022-11-15T07:21:04;7.27;;;4.83;;
13014;SDS011;6573;57.696;11.950;2022-11-15T07:23:35;9.67;;;4.77;;
13014;SDS011;6573;57.696;11.950;2022-11-15T07:26:05;7.40;;;4.20;;
13014;SDS011;6573;57.696;11.950;2022-11-15T07:28:33;5.63;;;4.47;;
13014;SDS011;6573;57.696;11.950;2022-11-15T07:31:05;8.87;;;4.20;;
13014;SDS011;6573;57.696;11.950;2022-11-15T07:33:35;6.97;;;3.33;;
13014;SDS011;6573;57.696;11.950;2022-11-15T07:36:04;7.70;;;4.87;;
13014;SDS011;6573;57.696;11.950;2022-11-15T07:38:34;6.70;;;3.60;;
13014;SDS011;6573;57.696;11.950;2022-11-15T07:41:08;5.80;;;3.83;;
13014;SDS011;6573;57.696;11.950;2022-11-15T07:43:37;9.97;;;5.03;;
13014;SDS011;6573;57.696;11.950;2022-11-15T07:46:07;8.50;;;6.70;;
13014;SDS011;6573;57.696;11.950;2022-11-15T07:48:36;6.30;;;5.00;;
13014;SDS011;6573;57.696;11.950;2022-11-15T07:51:11;5.27;;;4.60;;
13014;SDS011;6573;57.696;11.950;2022-11-15T07:53:40;5.63;;;5.03;;
13014;SDS011;6573;57.696;11.950;2022-11-15T07:56:09;8.20;;;5.23;;
13014;SDS011;6573;57.696;11.950;2022-11-15T07:58:37;9.47;;;5.40;;
13014;SDS011;6573;57.696;11.950;2022-11-15T08:01:08;7.20;;;5.50;;
13014;SDS011;6573;57.696;11.950;2022-11-15T08:03:37;8.87;;;5.30;;
13014;SDS011;6573;57.696;11.950;2022-11-15T08:06:06;8.37;;;4.80;;
13014;SDS011;6573;57.696;11.950;2022-11-15T08:08:34;6.47;;;5.17;;
13014;SDS011;6573;57.696;11.950;2022-11-15T08:11:02;7.03;;;5.53;;
13014;SDS011;6573;57.696;11.950;2022-11-15T08:13:30;6.90;;;4.47;;
13014;SDS011;6573;57.696;11.950;2022-11-15T08:16:00;6.70;;;4.97;;
13014;SDS011;6573;57.696;11.950;2022-11-15T08:18:34;5.43;;;4.83;;
13014;SDS011;6573;57.696;11.950;2022-11-15T08:21:02;5.43;;;4.33;;
13014;SDS011;6573;57.696;11.950;2022-11-15T08:23:31;7.17;;;5.00;;
13014;SDS011;6573;57.696;11.950;2022-11-15T08:26:00;5.80;;;4.70;;
13014;SDS011;6573;57.696;11.950;2022-11-15T08:28:29;5.67;;;4.20;;
13014;SDS011;6573;57.696;11.950;2022-11-15T08:30:58;7.87;;;4.80;;
13014;SDS011;6573;57.696;11.950;2022-11-15T08:33:27;7.50;;;5.27;;
13014;SDS011;6573;57.696;11.950;2022-11-15T08:35:57;6.80;;;4.80;;
13014;SDS011;6573;57.696;11.950;2022-11-15T08:38:26;6.57;;;5.07;;
13014;SDS011;6573;57.696;11.950;2022-11-15T08:40:59;6.97;;;4.83;;
13014;SDS011;6573;57.696;11.950;2022-11-15T08:43:30;7.17;;;4.60;;
13014;SDS011;6573;57.696;11.950;2022-11-15T08:45:58;6.83;;;5.27;;
13014;SDS011;6573;57.696;11.950;2022-11-15T08:48:27;6.17;;;5.00;;
13014;SDS011;6573;57.696;11.950;2022-11-15T08:50:56;8.60;;;5.20;;
13014;SDS011;6573;57.696;11.950;2022-11-15T08:53:25;9.97;;;4.90;;
13014;SDS011;6573;57.696;11.950;2022-11-15T08:55:53;7.17;;;4.90;;
13014;SDS011;6573;57.696;11.950;2022-11-15T08:58:21;9.77;;;5.23;;
13014;SDS011;6573;57.696;11.950;2022-11-15T09:00:50;9.53;;;4.70;;
13014;SDS011;6573;57.696;11.950;2022-11-15T09:03:18;6.70;;;4.97;;
13014;SDS011;6573;57.696;11.950;2022-11-15T09:05:46;8.33;;;4.20;;
13014;SDS011;6573;57.696;11.950;2022-11-15T09:08:16;8.00;;;3.87;;
13014;SDS011;6573;57.696;11.950;2022-11-15T09:11:04;4.50;;;3.47;;
13014;SDS011;6573;57.696;11.950;2022-11-15T09:13:33;7.37;;;4.93;;
13014;SDS011;6573;57.696;11.950;2022-11-15T09:16:03;7.17;;;5.10;;
13014;SDS011;6573;57.696;11.950;2022-11-15T09:18:32;4.40;;;3.23;;
13014;SDS011;6573;57.696;11.950;2022-11-15T09:21:01;7.03;;;4.50;;
13014;SDS011;6573;57.696;11.950;2022-11-15T09:23:31;4.60;;;3.17;;
13014;SDS011;6573;57.696;11.950;2022-11-15T09:25:59;6.00;;;3.83;;
13014;SDS011;6573;57.696;11.950;2022-11-15T09:28:29;7.30;;;3.80;;
13014;SDS011;6573;57.696;11.950;2022-11-15T09:31:01;5.20;;;3.87;;
13014;SDS011;6573;57.696;11.950;2022-11-15T09:33:31;6.03;;;3.00;;
13014;SDS011;6573;57.696;11.950;2022-11-15T09:36:00;6.63;;;3.50;;
13014;SDS011;6573;57.696;11.950;2022-11-15T09:38:29;8.60;;;4.70;;
13014;SDS011;6573;57.696;11.950;2022-11-15T09:44:06;5.50;;;3.60;;
13014;SDS011;6573;57.696;11.950;2022-11-15T09:46:58;5.50;;;3.63;;
13014;SDS011;6573;57.696;11.950;2022-11-15T09:49:36;4.53;;;3.30;;
13014;SDS011;6573;57.696;11.950;2022-11-15T09:52:06;7.17;;;3.83;;
13014;SDS011;6573;57.696;11.950;2022-11-15T09:54:39;5.83;;;3.90;;
13014;SDS011;6573;57.696;11.950;2022-11-15T09:57:21;4.93;;;3.80;;
13014;SDS011;6573;57.696;11.950;2022-11-15T10:00:09;4.43;;;2.70;;
13014;SDS011;6573;57.696;11.950;2022-11-15T10:03:12;3.17;;;2.20;;
13014;SDS011;6573;57.696;11.950;2022-11-15T10:05:43;6.53;;;4.93;;
13014;SDS011;6573;57.696;11.950;2022-11-15T10:08:25;5.53;;;3.30;;
13014;SDS011;6573;57.696;11.950;2022-11-15T10:11:05;9.60;;;4.20;;
13014;SDS011;6573;57.696;11.950;2022-11-15T10:13:56;5.97;;;4.43;;
13014;SDS011;6573;57.696;11.950;2022-11-15T10:16:35;4.73;;;3.13;;
13014;SDS011;6573;57.696;11.950;2022-11-15T10:19:19;12.00;;;4.80;;
13014;SDS011;6573;57.696;11.950;2022-11-15T10:21:55;5.10;;;3.53;;
13014;SDS011;6573;57.696;11.950;2022-11-15T10:24:33;5.40;;;4.03;;
13014;SDS011;6573;57.696;11.950;2022-11-15T10:27:09;7.50;;;4.03;;
13014;SDS011;6573;57.696;11.950;2022-11-15T10:29:42;5.43;;;3.33;;
13014;SDS011;6573;57.696;11.950;2022-11-15T10:32:12;5.20;;;3.87;;
13014;SDS011;6573;57.696;11.950;2022-11-15T10:34:42;6.73;;;3.50;;
13014;SDS011;6573;57.696;11.950;2022-11-15T10:37:10;5.70;;;3.80;;
13014;SDS011;6573;57.696;11.950;2022-11-15T10:39:38;5.50;;;3.47;;
13014;SDS011;6573;57.696;11.950;2022-11-15T10:42:22;6.33;;;3.77;;
13014;SDS011;6573;57.696;11.950;2022-11-15T10:44:54;7.53;;;4.00;;
13014;SDS011;6573;57.696;11.950;2022-11-15T10:47:24;10.87;;;3.63;;
13014;SDS011;6573;57.696;11.950;2022-11-15T10:49:55;5.73;;;3.80;;
13014;SDS011;6573;57.696;11.950;2022-11-15T10:52:28;5.80;;;3.87;;
13014;SDS011;6573;57.696;11.950;2022-11-15T10:55:00;3.33;;;2.17;;
13014;SDS011;6573;57.696;11.950;2022-11-15T10:57:33;6.00;;;3.50;;
13014;SDS011;6573;57.696;11.950;2022-11-15T11:00:05;7.20;;;3.40;;
13014;SDS011;6573;57.696;11.950;2022-11-15T11:02:39;9.67;;;3.57;;
13014;SDS011;6573;57.696;11.950;2022-11-15T11:05:25;4.43;;;2.70;;
13014;SDS011;6573;57.696;11.950;2022-11-15T11:07:56;4.03;;;3.10;;
13014;SDS011;6573;57.696;11.950;2022-11-15T11:10:25;5.70;;;3.60;;
13014;SDS011;6573;57.696;11.950;2022-11-15T11:13:19;6.27;;;4.50;;
13014;SDS011;6573;57.696;11.950;2022-11-15T11:15:52;5.13;;;3.10;;
13014;SDS011;6573;57.696;11.950;2022-11-15T11:18:28;4.00;;;3.13;;
13014;SDS011;6573;57.696;11.950;2022-11-15T11:21:03;6.20;;;3.40;;
13014;SDS011;6573;57.696;11.950;2022-11-15T11:23:38;8.57;;;3.80;;
13014;SDS011;6573;57.696;11.950;2022-11-15T11:29:07;9.27;;;3.53;;
13014;SDS011;6573;57.696;11.950;2022-11-15T11:31:51;6.27;;;3.80;;
13014;SDS011;6573;57.696;11.950;2022-11-15T11:34:31;5.97;;;4.00;;
13014;SDS011;6573;57.696;11.950;2022-11-15T11:37:11;6.43;;;3.17;;
13014;SDS011;6573;57.696;11.950;2022-11-15T11:39:48;8.33;;;4.53;;
13014;SDS011;6573;57.696;11.950;2022-11-15T11:42:37;5.83;;;3.20;;
13014;SDS011;6573;57.696;11.950;2022-11-15T11:45:18;4.17;;;3.23;;
13014;SDS011;6573;57.696;11.950;2022-11-15T11:47:55;5.17;;;3.60;;
13014;SDS011;6573;57.696;11.950;2022-11-15T11:50:35;6.33;;;3.37;;
13014;SDS011;6573;57.696;11.950;2022-11-15T11:53:08;5.87;;;3.17;;
13014;SDS011;6573;57.696;11.950;2022-11-15T11:55:40;12.13;;;5.20;;
13014;SDS011;6573;57.696;11.950;2022-11-15T11:58:12;5.97;;;3.77;;
13014;SDS011;6573;57.696;11.950;2022-11-15T12:00:45;4.37;;;3.03;;
13014;SDS011;6573;57.696;11.950;2022-11-15T12:03:18;3.63;;;2.70;;
13014;SDS011;6573;57.696;11.950;2022-11-15T12:05:56;3.70;;;2.60;;
13014;SDS011;6573;57.696;11.950;2022-11-15T12:08:30;3.13;;;2.40;;
13014;SDS011;6573;57.696;11.950;2022-11-15T12:11:07;3.47;;;2.30;;
13014;SDS011;6573;57.696;11.950;2022-11-15T12:13:44;4.17;;;2.63;;
13014;SDS011;6573;57.696;11.950;2022-11-15T12:16:20;4.07;;;2.60;;
13014;SDS011;6573;57.696;11.950;2022-11-15T12:18:53;4.07;;;2.80;;
13014;SDS011;6573;57.696;11.950;2022-11-15T12:21:24;4.67;;;2.70;;
13014;SDS011;6573;57.696;11.950;2022-11-15T12:24:03;5.10;;;2.57;;
13014;SDS011;6573;57.696;11.950;2022-11-15T12:26:37;2.30;;;2.10;;
13014;SDS011;6573;57.696;11.950;2022-11-15T12:29:10;9.73;;;2.97;;
13014;SDS011;6573;57.696;11.950;2022-11-15T12:31:47;5.20;;;2.23;;
13014;SDS011;6573;57.696;11.950;2022-11-15T12:37:33;2.57;;;2.10;;
13014;SDS011;6573;57.696;11.950;2022-11-15T12:40:16;2.73;;;2.27;;
13014;SDS011;6573;57.696;11.950;2022-11-15T12:42:57;6.07;;;3.57;;
13014;SDS011;6573;57.696;11.950;2022-11-15T12:45:29;6.97;;;2.67;;
13014;SDS011;6573;57.696;11.950;2022-11-15T12:51:04;6.13;;;3.27;;
13014;SDS011;6573;57.696;11.950;2022-11-15T12:53:33;2.70;;;2.10;;
13014;SDS011;6573;57.696;11.950;2022-11-15T12:58:53;4.87;;;2.00;;
13014;SDS011;6573;57.696;11.950;2022-11-15T13:04:28;5.50;;;2.93;;
13014;SDS011;6573;57.696;11.950;2022-11-15T13:07:00;3.67;;;1.77;;
13014;SDS011;6573;57.696;11.950;2022-11-15T13:18:31;3.53;;;1.80;;
13014;SDS011;6573;57.696;11.950;2022-11-15T13:21:03;4.50;;;2.00;;
13014;SDS011;6573;57.696;11.950;2022-11-15T13:23:55;5.20;;;2.17;;
13014;SDS011;6573;57.696;11.950;2022-11-15T13:26:23;5.63;;;1.63;;
13014;SDS011;6573;57.696;11.950;2022-11-15T13:28:52;3.57;;;1.77;;
13014;SDS011;6573;57.696;11.950;2022-11-15T13:31:26;2.47;;;1.17;;
13014;SDS011;6573;57.696;11.950;2022-11-15T13:33:58;1.77;;;1.30;;
13014;SDS011;6573;57.696;11.950;2022-11-15T13:36:28;1.43;;;1.33;;
13014;SDS011;6573;57.696;11.950;2022-11-15T13:39:02;2.80;;;1.20;;
13014;SDS011;6573;57.696;11.950;2022-11-15T13:41:56;3.67;;;1.30;;
13014;SDS011;6573;57.696;11.950;2022-11-15T13:44:28;2.17;;;1.20;;
13014;SDS011;6573;57.696;11.950;2022-11-15T13:47:01;2.13;;;1.00;;
13014;SDS011;6573;57.696;11.950;2022-11-15T13:49:31;1.90;;;1.43;;
13014;SDS011;6573;57.696;11.950;2022-11-15T13:52:01;2.63;;;1.37;;
13014;SDS011;6573;57.696;11.950;2022-11-15T13:54:34;2.13;;;1.13;;
13014;SDS011;6573;57.696;11.950;2022-11-15T13:57:11;2.40;;;1.60;;
13014;SDS011;6573;57.696;11.950;2022-11-15T13:59:46;2.20;;;1.40;;
13014;SDS011;6573;57.696;11.950;2022-11-15T14:02:18;1.80;;;1.40;;
13014;SDS011;6573;57.696;11.950;2022-11-15T14:04:50;1.97;;;1.50;;
13014;SDS011;6573;57.696;11.950;2022-11-15T14:07:21;3.30;;;1.60;;
13014;SDS011;6573;57.696;11.950;2022-11-15T14:09:53;2.07;;;1.40;;
13014;SDS011;6573;57.696;11.950;2022-11-15T14:12:23;1.53;;;1.20;;
13014;SDS011;6573;57.696;11.950;2022-11-15T14:14:53;2.53;;;1.60;;
13014;SDS011;6573;57.696;11.950;2022-11-15T14:17:33;1.87;;;1.60;;
13014;SDS011;6573;57.696;11.950;2022-11-15T14:20:19;3.70;;;2.30;;
13014;SDS011;6573;57.696;11.950;2022-11-15T14:22:51;4.07;;;1.70;;
13014;SDS011;6573;57.696;11.950;2022-11-15T14:25:22;3.43;;;1.50;;
13014;SDS011;6573;57.696;11.950;2022-11-15T14:28:10;3.63;;;1.70;;
13014;SDS011;6573;57.696;11.950;2022-11-15T14:30:40;1.37;;;1.00;;
13014;SDS011;6573;57.696;11.950;2022-11-15T14:33:17;1.80;;;1.10;;
13014;SDS011;6573;57.696;11.950;2022-11-15T14:35:48;1.60;;;0.70;;
13014;SDS011;6573;57.696;11.950;2022-11-15T14:38:16;1.13;;;1.00;;
13014;SDS011;6573;57.696;11.950;2022-11-15T14:40:46;1.37;;;1.27;;
13014;SDS011;6573;57.696;11.950;2022-11-15T14:43:15;0.77;;;0.50;;
13014;SDS011;6573;57.696;11.950;2022-11-15T14:45:43;1.20;;;0.83;;
13014;SDS011;6573;57.696;11.950;2022-11-15T14:48:12;0.70;;;0.70;;
13014;SDS011;6573;57.696;11.950;2022-11-15T14:50:40;1.10;;;0.90;;
13014;SDS011;6573;57.696;11.950;2022-11-15T14:53:11;1.87;;;0.90;;
13014;SDS011;6573;57.696;11.950;2022-11-15T14:55:40;0.80;;;0.80;;
13014;SDS011;6573;57.696;11.950;2022-11-15T14:58:10;2.13;;;1.07;;
13014;SDS011;6573;57.696;11.950;2022-11-15T15:00:39;0.70;;;0.70;;
13014;SDS011;6573;57.696;11.950;2022-11-15T15:03:08;1.00;;;0.90;;
13014;SDS011;6573;57.696;11.950;2022-11-15T15:05:38;1.80;;;0.97;;
13014;SDS011;6573;57.696;11.950;2022-11-15T15:08:07;0.93;;;0.60;;
13014;SDS011;6573;57.696;11.950;2022-11-15T15:10:36;0.60;;;0.60;;
13014;SDS011;6573;57.696;11.950;2022-11-15T15:13:12;0.97;;;0.70;;
13014;SDS011;6573;57.696;11.950;2022-11-15T15:15:44;1.43;;;0.60;;
13014;SDS011;6573;57.696;11.950;2022-11-15T15:18:12;1.63;;;0.80;;
13014;SDS011;6573;57.696;11.950;2022-11-15T15:20:41;2.83;;;0.87;;
13014;SDS011;6573;57.696;11.950;2022-11-15T15:23:15;3.07;;;0.80;;
13014;SDS011;6573;57.696;11.950;2022-11-15T15:25:45;0.77;;;0.60;;
13014;SDS011;6573;57.696;11.950;2022-11-15T15:28:16;1.20;;;0.90;;
13014;SDS011;6573;57.696;11.950;2022-11-15T15:30:45;1.03;;;0.50;;
13014;SDS011;6573;57.696;11.950;2022-11-15T15:33:13;1.43;;;0.80;;
13014;SDS011;6573;57.696;11.950;2022-11-15T15:35:41;0.80;;;0.40;;
13014;SDS011;6573;57.696;11.950;2022-11-15T15:38:10;1.00;;;0.60;;
13014;SDS011;6573;57.696;11.950;2022-11-15T15:40:39;0.60;;;0.60;;
13014;SDS011;6573;57.696;11.950;2022-11-15T15:43:07;0.40;;;0.30;;
13014;SDS011;6573;57.696;11.950;2022-11-15T15:45:37;0.43;;;0.43;;